Nimbus Weather Services

Informe meteorológico para Carrasco, Uruguay. El informe se hizo hace 27 minutos, a las 17:00 UTC. El viento soplaba a una velocidad de 5.1 m/s (11.5 millas por hora) del sureste (140°). La temperatura era 23 °C (73 °F), con un punto de rocío de 13 °C (55 °F). La sensación térmica era de 25 °C (77 °F). La presión atmosférica era 1023 hPa (30.21 inHg). Había una humedad relativa del 53.3%. Cielo: nubes dispersas a una altitud de 792 metros (2600 pies). En aquel momento la visibilidad global era mayor de 10 kilómetros (6.2 millas).

La clave METAR es: SUMU 191700Z 14010KT 9999 SCT026 23/13 Q1023 NOSIG

Consulta realizada el Sábado 19 de Enero de 2019 14:26. Tiempo usado para generar esta pagina:7,107 ms.